Farista, Colorado
Current Conditions -  °F | °C
As of 8:54 PM on Sunday 25 Jan 2015 (Local Time) from KTAD Reporting Station
Clear Clear  
Wind Chill: 29°   Ceiling: Unl
Heat Index: 37°   Visibility: 10mi
Dew Point: 26°   Wind: 13mph
Humidity: 65%   Direction: 250°WSW
Pressure: 30.23"   Gusts: NA
Location:  37.6936°N, 104.772°W
Report Text: KTAD 260354Z AUTO 25011KT 10SM CLR 03/M03 A3023 RMK AO2 SLP237 T00281033
Loading
Personal Weather Stations






























Interactive Weather Map New forecast layout! Learn more

10-Day Weather Forecast

Advertisements
Track Severe Weather on mobile